Time;durP1;ratioP1;P1;durP2;ratioP2;P2;SDS_P1;SDS_P2;PMS_P1;PMS_P2;Temp;Humidity;BMP_temperature;BMP_pressure;BME280_temperature;BME280_humidity;BME280_pressure;Samples;Min_cycle;Max_cycle;Signal;HPM_P1;HPM_P2
2023/05/13 00:00:20;;;;;;;7.57;4.40;;;;;;;12.04;100.00;99313.84;4820797;29;20231;-78
2023/05/13 00:02:57;;;;;;;8.23;4.97;;;;;;;11.90;100.00;99317.44;4844896;29;20687;-78
2023/05/13 00:05:28;;;;;;;6.17;4.70;;;;;;;11.78;100.00;99310.28;4859998;29;20267;-78
2023/05/13 00:08:00;;;;;;;8.43;4.93;;;;;;;11.67;100.00;99313.63;4858978;29;20212;-78
2023/05/13 00:10:30;;;;;;;10.00;5.20;;;;;;;11.36;100.00;99332.50;4892595;29;20217;-78
2023/05/13 00:12:58;;;;;;;5.90;5.30;;;;;;;11.46;100.00;99312.38;4915021;29;20202;-78
2023/05/13 00:15:26;;;;;;;9.47;6.47;;;;;;;11.45;100.00;99310.69;4911385;29;20262;-78
2023/05/13 00:18:00;;;;;;;7.13;5.77;;;;;;;11.71;100.00;99319.59;4914878;29;20224;-78
2023/05/13 00:20:29;;;;;;;7.60;5.80;;;;;;;11.90;100.00;99319.25;4912985;29;20280;-78
2023/05/13 00:22:58;;;;;;;6.20;5.60;;;;;;;11.87;100.00;99320.31;4955346;28;20223;-78
2023/05/13 00:25:27;;;;;;;8.60;5.43;;;;;;;11.94;100.00;99315.44;4970213;28;20270;-78
2023/05/13 00:27:55;;;;;;;8.30;5.63;;;;;;;11.84;100.00;99315.19;4966509;28;20271;-78
2023/05/13 00:30:24;;;;;;;6.63;5.33;;;;;;;11.76;100.00;99312.16;4970209;28;20192;-78
2023/05/13 00:32:52;;;;;;;6.60;5.17;;;;;;;11.68;100.00;99318.00;4964980;28;20676;-78
2023/05/13 00:35:23;;;;;;;6.03;5.47;;;;;;;11.80;100.00;99310.22;4964926;28;20255;-77
2023/05/13 00:37:51;;;;;;;7.70;6.17;;;;;;;11.83;100.00;99312.66;4965516;28;20259;-78
2023/05/13 00:40:21;;;;;;;6.77;5.90;;;;;;;11.95;100.00;99310.00;4967272;28;20203;-77
2023/05/13 00:42:51;;;;;;;7.93;5.70;;;;;;;11.92;100.00;99306.72;4975299;28;20196;-77
2023/05/13 00:45:19;;;;;;;7.17;5.80;;;;;;;12.02;100.00;99308.66;4971921;28;20220;-77
2023/05/13 00:47:50;;;;;;;7.50;5.90;;;;;;;12.03;100.00;99313.00;4967779;28;20199;-77
2023/05/13 00:50:18;;;;;;;7.87;5.93;;;;;;;11.78;100.00;99309.44;4969016;28;20203;-77
2023/05/13 00:52:51;;;;;;;11.47;6.10;;;;;;;11.72;100.00;99306.22;4968076;28;20206;-78
2023/05/13 00:55:21;;;;;;;11.37;6.63;;;;;;;11.56;100.00;99308.19;4969016;28;20207;-78
2023/05/13 00:57:50;;;;;;;8.80;6.60;;;;;;;11.62;100.00;99310.44;4969653;28;20214;-78
2023/05/13 01:00:19;;;;;;;6.63;5.80;;;;;;;11.58;100.00;99314.25;4966882;28;20652;-78
2023/05/13 01:02:55;;;;;;;6.40;5.80;;;;;;;11.70;100.00;99313.44;4908072;29;20237;-78
2023/05/13 01:05:31;;;;;;;7.87;6.23;;;;;;;11.68;100.00;99314.50;4913127;29;20248;-78
2023/05/13 01:08:10;;;;;;;7.90;5.53;;;;;;;11.68;100.00;99318.00;4908208;29;20269;-78
2023/05/13 01:10:42;;;;;;;7.40;5.23;;;;;;;11.80;100.00;99310.22;4907329;29;20242;-78
2023/05/13 01:13:13;;;;;;;7.60;5.50;;;;;;;11.74;100.00;99306.97;4907934;29;20201;-78
2023/05/13 01:15:47;;;;;;;6.43;5.10;;;;;;;11.70;100.00;99308.13;4909585;29;20216;-78
2023/05/13 01:18:20;;;;;;;7.87;5.63;;;;;;;11.55;100.00;99311.78;4911222;29;20201;-77
2023/05/13 01:20:49;;;;;;;6.50;5.70;;;;;;;11.50;100.00;99311.25;4912437;29;20211;-78
2023/05/13 01:23:18;;;;;;;7.27;5.87;;;;;;;11.65;100.00;99320.84;4909904;29;20227;-78
2023/05/13 01:25:47;;;;;;;7.53;6.17;;;;;;;11.75;100.00;99313.97;4909688;29;20221;-78
2023/05/13 01:28:16;;;;;;;9.20;6.20;;;;;;;11.75;100.00;99321.94;4959433;28;20226;-78
2023/05/13 01:30:47;;;;;;;8.10;6.30;;;;;;;11.74;100.00;99322.03;4971926;28;20211;-78
2023/05/13 01:33:17;;;;;;;6.70;6.00;;;;;;;11.74;100.00;99319.38;4972914;28;20195;-78
2023/05/13 01:35:47;;;;;;;8.20;5.67;;;;;;;11.69;100.00;99324.16;4967716;28;20195;-78
2023/05/13 01:38:16;;;;;;;8.03;6.00;;;;;;;11.69;100.00;99313.53;4929846;29;20244;-78
2023/05/13 01:40:51;;;;;;;8.17;5.93;;;;;;;11.63;100.00;99317.44;4926449;29;20669;-78
2023/05/13 01:43:21;;;;;;;7.27;6.40;;;;;;;11.39;100.00;99319.06;4928551;29;20201;-78
2023/05/13 01:45:50;;;;;;;10.00;6.30;;;;;;;11.36;100.00;99322.72;4923429;29;20232;-78
2023/05/13 01:48:18;;;;;;;8.13;6.33;;;;;;;11.32;100.00;99320.41;4923664;29;20260;-78
2023/05/13 01:50:46;;;;;;;12.43;6.57;;;;;;;11.31;100.00;99326.66;4923944;29;20251;-78
2023/05/13 01:53:15;;;;;;;7.30;6.60;;;;;;;11.24;100.00;99331.47;4925234;29;20208;-77
2023/05/13 01:55:43;;;;;;;8.23;6.70;;;;;;;11.25;100.00;99327.88;4934489;28;20200;-78
2023/05/13 01:58:13;;;;;;;7.43;6.50;;;;;;;11.21;100.00;99338.78;4966755;28;20227;-78
2023/05/13 02:00:42;;;;;;;9.77;6.73;;;;;;;11.19;100.00;99338.88;4973888;28;20243;-79
2023/05/13 02:03:11;;;;;;;7.60;6.80;;;;;;;11.22;100.00;99336.03;4964027;28;20228;-78
2023/05/13 02:05:39;;;;;;;8.20;6.67;;;;;;;11.21;100.00;99336.16;4967700;28;20251;-78
2023/05/13 02:08:09;;;;;;;9.60;6.93;;;;;;;11.30;100.00;99338.22;4963885;28;20211;-78
2023/05/13 02:10:37;;;;;;;7.93;7.13;;;;;;;11.17;100.00;99344.28;4962450;28;20204;-78
2023/05/13 02:13:06;;;;;;;7.37;6.60;;;;;;;11.18;100.00;99343.31;4969399;28;20199;-78
2023/05/13 02:15:36;;;;;;;9.63;6.63;;;;;;;11.24;100.00;99338.59;4965025;28;20250;-78
2023/05/13 02:18:04;;;;;;;7.17;6.43;;;;;;;11.24;100.00;99343.91;4962739;28;20208;-78
2023/05/13 02:20:33;;;;;;;9.40;6.87;;;;;;;11.20;100.00;99342.41;4962043;28;20659;-78
2023/05/13 02:23:01;;;;;;;10.93;6.97;;;;;;;11.18;100.00;99347.78;4967469;28;20199;-78
2023/05/13 02:25:29;;;;;;;8.23;7.30;;;;;;;11.21;100.00;99339.66;4969725;28;20276;-78
2023/05/13 02:28:00;;;;;;;10.50;7.60;;;;;;;11.14;100.00;99341.81;4972934;28;20207;-78
2023/05/13 02:30:32;;;;;;;10.80;7.53;;;;;;;11.31;100.00;99335.47;4968152;28;20207;-78
2023/05/13 02:33:02;;;;;;;7.80;6.67;;;;;;;11.34;100.00;99337.06;4973634;28;20203;-77
2023/05/13 02:35:31;;;;;;;10.13;6.80;;;;;;;11.45;100.00;99334.56;4973661;28;20206;-77
2023/05/13 02:38:02;;;;;;;9.27;7.17;;;;;;;11.41;100.00;99336.56;4970670;28;20247;-78
2023/05/13 02:40:32;;;;;;;7.90;6.67;;;;;;;11.40;100.00;99332.22;4971794;28;20196;-78
2023/05/13 02:43:02;;;;;;;8.90;8.00;;;;;;;11.45;100.00;99339.84;4972544;28;20200;-78
2023/05/13 02:45:32;;;;;;;11.17;8.13;;;;;;;11.44;100.00;99340.81;4971358;28;20219;-78
2023/05/13 02:48:01;;;;;;;10.83;8.00;;;;;;;11.41;100.00;99346.31;4969700;28;20196;-78
2023/05/13 02:50:30;;;;;;;9.63;8.53;;;;;;;11.44;100.00;99346.97;4974392;28;20200;-78
2023/05/13 02:52:58;;;;;;;11.13;8.33;;;;;;;11.57;100.00;99340.84;4971703;28;20195;-78
2023/05/13 02:55:27;;;;;;;9.93;8.17;;;;;;;11.56;100.00;99336.50;4968644;28;20290;-78
2023/05/13 02:57:55;;;;;;;11.23;7.73;;;;;;;11.49;100.00;99333.41;4973112;28;20611;-78
2023/05/13 03:00:24;;;;;;;9.77;7.63;;;;;;;11.48;100.00;99342.31;4968971;28;20192;-78
2023/05/13 03:02:52;;;;;;;8.87;7.50;;;;;;;11.42;100.00;99335.59;4965739;28;20294;-78
2023/05/13 03:05:24;;;;;;;8.70;7.80;;;;;;;11.23;100.00;99339.53;4964471;28;20695;-78
2023/05/13 03:07:57;;;;;;;10.10;7.23;;;;;;;11.12;100.00;99343.72;4968990;28;20584;-78
2023/05/13 03:10:30;;;;;;;10.20;7.40;;;;;;;11.24;100.00;99338.59;4974770;28;20250;-78
2023/05/13 03:12:59;;;;;;;8.77;7.23;;;;;;;11.17;100.00;99332.81;4928325;29;20708;-77
2023/05/13 03:15:28;;;;;;;8.53;6.60;;;;;;;11.05;100.00;99346.84;4928046;29;20197;-78
2023/05/13 03:17:56;;;;;;;9.27;6.67;;;;;;;11.13;100.00;99339.28;4931657;29;20193;-80
2023/05/13 03:20:26;;;;;;;8.07;5.97;;;;;;;11.09;100.00;99343.06;4932298;29;20280;-78
2023/05/13 03:22:57;;;;;;;7.97;5.80;;;;;;;11.10;100.00;99350.94;4930752;29;20290;-78
2023/05/13 03:25:25;;;;;;;7.97;6.27;;;;;;;11.09;100.00;99343.06;4933202;29;20809;-78
2023/05/13 03:27:54;;;;;;;7.03;6.33;;;;;;;10.91;100.00;99341.59;4933247;29;20248;-78
2023/05/13 03:30:24;;;;;;;11.13;7.00;;;;;;;10.79;100.00;99348.47;4941208;28;20207;-78
2023/05/13 03:32:53;;;;;;;8.10;6.57;;;;;;;10.86;100.00;99347.16;4967495;28;20207;-77
2023/05/13 03:35:22;;;;;;;9.97;7.30;;;;;;;10.59;100.00;99357.63;4964913;28;20227;-77
2023/05/13 03:37:51;;;;;;;8.40;6.90;;;;;;;10.77;100.00;99364.47;4967671;28;20203;-78
2023/05/13 03:40:21;;;;;;;7.53;6.73;;;;;;;10.84;100.00;99367.59;4966762;28;20212;-78
2023/05/13 03:42:54;;;;;;;7.87;7.07;;;;;;;10.97;100.00;99372.97;4909771;29;20229;-78
2023/05/13 03:45:22;;;;;;;7.83;6.83;;;;;;;10.91;100.00;99370.72;4908833;29;20259;-78
2023/05/13 03:47:55;;;;;;;7.60;6.83;;;;;;;10.96;100.00;99373.94;4906895;29;20230;-78
2023/05/13 03:50:26;;;;;;;10.43;6.80;;;;;;;10.91;100.00;99366.28;4911746;29;20194;-79
2023/05/13 03:52:57;;;;;;;9.37;6.60;;;;;;;10.87;100.00;99372.69;4855378;29;20203;-78
2023/05/13 03:55:25;;;;;;;9.03;6.90;;;;;;;10.85;100.00;99366.66;4856603;29;20615;-78
2023/05/13 03:57:55;;;;;;;10.47;6.60;;;;;;;10.86;100.00;99366.56;4799173;29;20218;-78
2023/05/13 04:00:23;;;;;;;8.27;6.80;;;;;;;10.80;100.00;99364.28;4801952;29;20248;-79
2023/05/13 04:02:51;;;;;;;8.53;6.67;;;;;;;10.81;100.00;99365.16;4818991;29;20709;-78
2023/05/13 04:05:21;;;;;;;11.07;7.03;;;;;;;10.82;100.00;99373.00;4820176;29;20228;-78
2023/05/13 04:07:49;;;;;;;9.10;7.47;;;;;;;10.86;100.00;99365.69;4823820;29;20208;-79
2023/05/13 04:10:20;;;;;;;9.00;7.73;;;;;;;10.91;100.00;99371.59;4827057;29;20196;-78
2023/05/13 04:12:51;;;;;;;9.50;7.70;;;;;;;10.88;100.00;99374.41;4858130;29;20229;-78
2023/05/13 04:15:20;;;;;;;9.40;7.70;;;;;;;11.02;100.00;99377.06;4871717;29;20205;-78
2023/05/13 04:17:52;;;;;;;10.40;7.80;;;;;;;10.91;100.00;99371.59;4927848;29;20197;-78
2023/05/13 04:20:27;;;;;;;9.27;7.37;;;;;;;10.99;100.00;99371.09;4899700;29;20301;-78
2023/05/13 04:22:58;;;;;;;9.77;7.30;;;;;;;11.01;100.00;99366.56;4931292;29;20225;-78
2023/05/13 04:25:30;;;;;;;11.10;7.47;;;;;;;10.86;100.00;99374.50;4931310;29;20199;-78
2023/05/13 04:28:02;;;;;;;10.03;7.10;;;;;;;11.10;100.00;99371.28;4929602;29;20197;-78
2023/05/13 04:30:31;;;;;;;8.67;7.37;;;;;;;10.97;100.00;99371.19;4924180;29;20204;-78
2023/05/13 04:33:01;;;;;;;10.93;7.73;;;;;;;11.08;100.00;99375.81;4931134;29;20198;-78
2023/05/13 04:35:32;;;;;;;9.43;7.07;;;;;;;11.04;100.00;99366.34;4926363;29;20220;-79
2023/05/13 04:38:05;;;;;;;8.33;7.00;;;;;;;11.00;100.00;99368.38;4936497;28;20215;-79
2023/05/13 04:40:36;;;;;;;7.60;6.90;;;;;;;11.09;100.00;99370.41;4973232;28;20208;-78
2023/05/13 04:43:04;;;;;;;9.67;7.50;;;;;;;11.23;100.00;99372.22;4969870;28;20192;-78
2023/05/13 04:45:37;;;;;;;11.47;7.73;;;;;;;11.16;100.00;99373.53;4966020;28;20192;-79
2023/05/13 04:48:06;;;;;;;8.77;7.27;;;;;;;11.22;100.00;99373.16;4968551;28;20226;-78
2023/05/13 04:50:42;;;;;;;11.97;7.70;;;;;;;11.29;100.00;99373.59;4964097;28;20211;-78
2023/05/13 04:53:11;;;;;;;9.90;7.40;;;;;;;11.33;100.00;99378.63;4966698;28;20203;-78
2023/05/13 04:55:42;;;;;;;9.87;8.00;;;;;;;11.37;100.00;99379.28;4967538;28;20204;-78
2023/05/13 04:58:10;;;;;;;8.97;8.03;;;;;;;11.23;100.00;99377.50;4932593;28;20251;-78
2023/05/13 05:00:39;;;;;;;12.70;8.57;;;;;;;11.25;100.00;99382.72;4967875;28;20207;-78
2023/05/13 05:03:08;;;;;;;13.73;8.23;;;;;;;11.39;100.00;99383.56;4967435;28;20686;-78
2023/05/13 05:05:38;;;;;;;9.50;8.50;;;;;;;11.27;100.00;99371.06;4965675;28;20355;-79
2023/05/13 05:08:08;;;;;;;9.50;8.57;;;;;;;11.41;100.00;99379.00;4964629;28;20207;-78
2023/05/13 05:10:36;;;;;;;10.07;8.47;;;;;;;11.47;100.00;99386.53;4966313;28;20219;-78
2023/05/13 05:13:07;;;;;;;9.63;8.37;;;;;;;11.60;100.00;99391.94;4971918;28;20196;-78
2023/05/13 05:15:36;;;;;;;13.23;8.70;;;;;;;11.71;100.00;99392.09;4970711;28;20687;-78
2023/05/13 05:18:06;;;;;;;10.10;9.10;;;;;;;11.69;100.00;99386.03;4966457;28;20192;-78
2023/05/13 05:20:36;;;;;;;9.87;8.90;;;;;;;11.67;100.00;99389.72;4960997;28;20210;-78
2023/05/13 05:23:04;;;;;;;12.10;8.97;;;;;;;11.69;100.00;99398.44;4967470;28;20203;-78
2023/05/13 05:25:33;;;;;;;9.33;8.27;;;;;;;11.83;100.00;99395.78;4971713;28;20200;-79
2023/05/13 05:28:04;;;;;;;12.57;8.97;;;;;;;11.87;100.00;99399.94;4926168;29;20228;-78
2023/05/13 05:30:38;;;;;;;11.67;8.80;;;;;;;11.80;100.00;99409.25;4923593;29;20209;-78
2023/05/13 05:33:07;;;;;;;9.07;8.10;;;;;;;11.83;100.00;99406.38;4924482;29;20208;-78
2023/05/13 05:35:37;;;;;;;11.67;8.73;;;;;;;12.02;100.00;99398.06;4925351;29;20284;-78
2023/05/13 05:38:06;;;;;;;10.13;9.13;;;;;;;12.02;100.00;99404.22;4927660;29;20704;-79
2023/05/13 05:40:37;;;;;;;10.10;8.80;;;;;;;12.08;100.00;99403.00;4933699;29;20204;-79
2023/05/13 05:43:06;;;;;;;9.37;8.00;;;;;;;12.21;100.00;99414.47;4931202;29;20271;-78
2023/05/13 05:45:37;;;;;;;9.70;8.70;;;;;;;12.30;100.00;99419.19;4931842;28;20263;-78
2023/05/13 05:48:07;;;;;;;10.00;8.10;;;;;;;12.31;100.00;99420.88;4969948;28;20215;-78
2023/05/13 05:50:36;;;;;;;9.07;8.10;;;;;;;12.40;100.00;99415.91;4974034;28;20198;-79
2023/05/13 05:53:05;;;;;;;11.27;8.77;;;;;;;12.47;100.00;99410.09;4968823;28;20200;-78
2023/05/13 05:55:34;;;;;;;12.23;8.40;;;;;;;12.57;100.00;99405.84;4911804;29;20201;-79
2023/05/13 05:58:04;;;;;;;8.63;7.77;;;;;;;12.61;100.00;99414.44;4905207;29;20201;-78
2023/05/13 06:00:33;;;;;;;9.20;7.93;;;;;;;12.47;100.00;99415.41;4908899;29;20282;-78
2023/05/13 06:03:04;;;;;;;9.37;7.97;;;;;;;12.60;100.00;99412.75;4838466;29;20228;-78
2023/05/13 06:05:34;;;;;;;10.07;7.20;;;;;;;12.76;100.00;99415.22;4835298;29;20215;-78
2023/05/13 06:08:03;;;;;;;8.67;7.77;;;;;;;12.89;100.00;99411.59;4835107;29;20220;-79
2023/05/13 06:10:31;;;;;;;9.73;8.00;;;;;;;13.01;100.00;99409.88;4834251;29;20208;-79
2023/05/13 06:13:01;;;;;;;8.13;7.30;;;;;;;13.12;100.00;99402.03;4813547;29;20255;-78
2023/05/13 06:15:29;;;;;;;9.77;7.60;;;;;;;13.21;100.00;99403.19;4856082;29;20252;-78
2023/05/13 06:17:58;;;;;;;10.20;7.30;;;;;;;13.28;100.00;99396.47;4856828;29;20199;-78
2023/05/13 06:20:28;;;;;;;8.80;7.90;;;;;;;13.39;100.00;99401.03;4852528;29;20200;-78
2023/05/13 06:22:57;;;;;;;9.27;7.70;;;;;;;13.49;100.00;99407.41;4853201;29;20256;-78
2023/05/13 06:25:26;;;;;;;8.80;7.87;;;;;;;13.56;100.00;99389.19;4851017;29;20215;-78
2023/05/13 06:27:54;;;;;;;11.27;8.00;;;;;;;13.54;100.00;99394.63;4886568;29;20692;-78
2023/05/13 06:30:23;;;;;;;10.57;8.10;;;;;;;13.69;100.00;99395.31;4909114;29;20205;-79
2023/05/13 06:32:53;;;;;;;10.37;7.50;;;;;;;13.49;100.00;99387.91;4908738;29;20205;-78
2023/05/13 06:35:31;;;;;;;9.10;8.00;;;;;;;13.55;100.00;99393.66;4911254;29;20217;-78
2023/05/13 06:37:59;;;;;;;10.07;7.80;;;;;;;13.61;100.00;99387.06;4950557;28;20204;-78
2023/05/13 06:40:27;;;;;;;12.00;8.47;;;;;;;13.73;100.00;99392.31;4964324;28;20207;-79
2023/05/13 06:42:56;;;;;;;9.10;7.80;;;;;;;13.89;100.00;99392.03;4963955;28;20196;-79
2023/05/13 06:45:25;;;;;;;8.70;7.73;;;;;;;13.99;100.00;99384.19;4968292;28;20200;-79
2023/05/13 06:47:53;;;;;;;9.60;7.50;;;;;;;14.13;100.00;99389.38;4963737;28;20227;-78
2023/05/13 06:50:22;;;;;;;9.33;8.07;;;;;;;14.22;100.00;99388.69;4968854;28;20224;-79
2023/05/13 06:52:52;;;;;;;8.37;7.40;;;;;;;14.37;100.00;99388.47;4970416;28;20681;-79
2023/05/13 06:55:21;;;;;;;9.40;7.27;;;;;;;14.50;100.00;99389.28;4965597;28;20207;-79
2023/05/13 06:57:50;;;;;;;8.87;7.87;;;;;;;14.51;100.00;99388.31;4963360;28;20204;-79
2023/05/13 07:00:19;;;;;;;8.40;7.53;;;;;;;14.65;100.00;99381.91;4968254;28;20192;-79
2023/05/13 07:02:48;;;;;;;11.20;7.70;;;;;;;14.87;100.00;99384.63;4968735;28;20240;-79
2023/05/13 07:05:16;;;;;;;9.43;7.67;;;;;;;15.02;100.00;99382.56;4966854;28;20247;-78
2023/05/13 07:07:46;;;;;;;8.17;7.17;;;;;;;15.22;100.00;99373.81;4969393;28;20219;-79
2023/05/13 07:10:16;;;;;;;13.57;8.33;;;;;;;15.39;100.00;99373.34;4968082;28;20222;-79
2023/05/13 07:12:44;;;;;;;7.63;6.63;;;;;;;15.37;100.00;99380.63;4974193;28;20276;-79
2023/05/13 07:15:13;;;;;;;8.10;7.30;;;;;;;15.61;100.00;99375.13;4971385;28;20200;-79
2023/05/13 07:17:41;;;;;;;12.30;7.13;;;;;;;15.66;100.00;99375.63;4969670;28;20275;-79
2023/05/13 07:20:10;;;;;;;9.73;6.27;;;;;;;15.83;100.00;99373.41;4973929;28;20322;-79
2023/05/13 07:22:38;;;;;;;7.90;6.63;;;;;;;16.04;100.00;99376.97;4968157;28;20607;-79
2023/05/13 07:25:07;;;;;;;6.80;6.10;;;;;;;16.17;100.00;99376.78;4972519;28;20207;-79
2023/05/13 07:27:38;;;;;;;8.77;6.23;;;;;;;16.30;100.00;99372.09;4963584;28;20230;-80
2023/05/13 07:30:07;;;;;;;5.97;5.37;;;;;;;16.41;100.00;99369.38;4976733;28;20258;-79
2023/05/13 07:32:36;;;;;;;6.43;4.80;;;;;;;16.59;100.00;99372.28;4964250;28;20227;-79
2023/05/13 07:35:05;;;;;;;6.93;4.60;;;;;;;16.40;100.00;99362.31;4969738;28;20195;-79
2023/05/13 07:37:33;;;;;;;5.43;4.10;;;;;;;16.66;100.00;99356.59;4973638;28;20258;-79
2023/05/13 07:40:02;;;;;;;4.83;4.20;;;;;;;16.59;100.00;99359.78;4973736;28;20204;-79
2023/05/13 07:42:32;;;;;;;5.17;3.60;;;;;;;16.83;100.00;99348.00;4972418;28;20188;-79
2023/05/13 07:45:01;;;;;;;4.47;3.20;;;;;;;17.03;100.00;99347.09;4970619;28;20204;-79
2023/05/13 07:47:30;;;;;;;4.40;3.30;;;;;;;17.07;100.00;99350.34;4966587;28;20255;-79
2023/05/13 07:49:59;;;;;;;5.57;2.57;;;;;;;17.20;100.00;99350.13;4971452;28;20218;-79
2023/05/13 07:52:29;;;;;;;8.97;6.30;;;;;;;17.58;100.00;99338.66;4973582;28;20704;-80
2023/05/13 07:54:58;;;;;;;5.27;3.73;;;;;;;17.53;100.00;99340.91;4972619;28;20196;-80
2023/05/13 07:57:26;;;;;;;3.30;3.00;;;;;;;17.44;100.00;99334.53;4976321;28;20202;-79
2023/05/13 07:59:54;;;;;;;4.07;2.83;;;;;;;17.56;100.00;99337.94;4972309;28;20211;-79
2023/05/13 08:02:24;;;;;;;5.33;3.30;;;;;;;17.45;100.00;99341.59;4961698;28;20247;-80
2023/05/13 08:04:53;;;;;;;3.63;3.33;;;;;;;17.36;100.00;99332.53;4970648;28;20682;-79
2023/05/13 08:07:21;;;;;;;5.67;5.07;;;;;;;17.82;100.00;99340.97;4964327;28;20231;-80
2023/05/13 08:09:50;;;;;;;6.43;5.87;;;;;;;17.93;100.00;99336.31;4969417;28;20247;-79
2023/05/13 08:12:18;;;;;;;6.10;3.93;;;;;;;18.09;100.00;99338.44;4969179;28;20203;-79
2023/05/13 08:14:46;;;;;;;9.77;4.90;;;;;;;18.10;100.00;99342.81;4973181;28;20202;-79
2023/05/13 08:17:18;;;;;;;7.33;3.33;;;;;;;18.00;100.00;99348.19;4967120;28;20196;-80
2023/05/13 08:19:48;;;;;;;4.27;3.40;;;;;;;17.88;100.00;99346.63;4968620;28;20206;-79
2023/05/13 08:22:16;;;;;;;9.47;6.97;;;;;;;17.87;100.00;99344.94;4968276;28;20202;-79
2023/05/13 08:24:44;;;;;;;5.70;4.50;;;;;;;17.86;100.00;99345.09;4964620;28;20204;-79
2023/05/13 08:27:13;;;;;;;4.00;3.70;;;;;;;17.98;100.00;99347.50;4965192;28;20208;-79
2023/05/13 08:29:41;;;;;;;7.77;7.07;;;;;;;18.16;100.00;99349.47;4970707;28;20223;-79
2023/05/13 08:32:11;;;;;;;5.33;3.20;;;;;;;17.95;100.00;99342.41;4928956;29;20583;-80
2023/05/13 08:34:40;;;;;;;3.17;2.83;;;;;;;18.23;100.00;99332.66;4929993;29;20199;-79
2023/05/13 08:37:09;;;;;;;5.27;3.47;;;;;;;18.26;100.00;99329.69;4930776;29;20193;-79
2023/05/13 08:39:41;;;;;;;4.10;3.10;;;;;;;18.47;100.00;99340.25;4925308;29;20197;-80
2023/05/13 08:42:12;;;;;;;4.67;2.90;;;;;;;18.43;100.00;99328.13;4927532;29;20193;-80
2023/05/13 08:44:43;;;;;;;5.57;3.63;;;;;;;18.17;100.00;99329.72;4928876;29;20239;-80
2023/05/13 08:47:22;;;;;;;5.80;4.00;;;;;;;18.40;100.00;99331.09;4929982;29;20234;-79
2023/05/13 08:49:51;;;;;;;4.73;3.33;;;;;;;18.66;100.00;99338.56;4936585;28;20231;-79
2023/05/13 08:52:23;;;;;;;5.37;3.47;;;;;;;18.98;100.00;99330.09;4971102;28;20702;-80
2023/05/13 08:54:51;;;;;;;3.93;3.40;;;;;;;18.85;100.00;99333.97;4965013;28;20251;-80
2023/05/13 08:57:19;;;;;;;3.80;3.40;;;;;;;18.99;100.00;99331.78;4968225;28;20192;-79
2023/05/13 08:59:47;;;;;;;8.37;3.57;;;;;;;19.13;100.00;99332.16;4972183;28;20196;-80
2023/05/13 09:02:17;;;;;;;4.73;3.50;;;;;;;19.02;100.00;99331.53;4967525;28;20200;-79
2023/05/13 09:04:46;;;;;;;5.27;3.33;;;;;;;19.24;100.00;99328.44;4969168;28;20208;-80
2023/05/13 09:07:14;;;;;;;5.53;2.93;;;;;;;19.38;100.00;99317.19;4922412;28;20247;-80
2023/05/13 09:09:45;;;;;;;3.57;3.10;;;;;;;19.51;100.00;99332.97;4969566;28;20223;-79
2023/05/13 09:12:34;;;;;;;4.43;3.10;;;;;;;19.53;100.00;99330.13;4970062;28;20192;-79
2023/05/13 09:15:02;;;;;;;4.40;3.37;;;;;;;19.21;100.00;99320.69;4974676;28;20206;-79
2023/05/13 09:17:30;;;;;;;4.17;3.50;;;;;;;19.31;100.00;99326.00;4973392;28;20195;-79
2023/05/13 09:20:07;;;;;;;5.67;3.23;;;;;;;19.73;100.00;99329.03;4965248;28;20200;-79
2023/05/13 09:22:36;;;;;;;3.83;3.23;;;;;;;19.64;100.00;99325.41;4970666;28;20274;-79
2023/05/13 09:25:11;;;;;;;4.73;3.47;;;;;;;19.58;100.00;99328.69;4966602;28;20345;-79
2023/05/13 09:27:41;;;;;;;4.33;3.27;;;;;;;19.80;100.00;99329.28;4967142;28;20593;-78
2023/05/13 09:30:14;;;;;;;4.93;3.53;;;;;;;19.81;100.00;99330.97;4969201;28;20215;-78
2023/05/13 09:32:43;;;;;;;6.17;3.60;;;;;;;19.39;100.00;99324.25;4967875;28;20192;-79
2023/05/13 09:35:16;;;;;;;4.77;3.30;;;;;;;19.94;100.00;99331.41;4969035;28;20196;-79
2023/05/13 09:37:46;;;;;;;5.57;3.63;;;;;;;20.37;94.03;99322.56;4964829;28;20258;-79
2023/05/13 09:40:17;;;;;;;5.03;3.10;;;;;;;20.13;91.72;99323.19;4968098;28;20206;-78
2023/05/13 09:42:47;;;;;;;5.50;3.40;;;;;;;20.00;90.97;99315.53;4968989;28;20196;-79
2023/05/13 09:45:18;;;;;;;3.33;3.03;;;;;;;20.36;87.71;99320.84;4967193;28;20250;-79
2023/05/13 09:47:52;;;;;;;3.40;3.10;;;;;;;20.58;83.86;99327.59;4910048;29;20198;-79
2023/05/13 09:50:21;;;;;;;3.77;2.77;;;;;;;20.58;83.09;99322.22;4907737;29;20226;-79
2023/05/13 09:52:51;;;;;;;4.63;3.00;;;;;;;20.84;81.12;99323.06;4908145;29;20661;-79
2023/05/13 09:55:23;;;;;;;3.53;3.10;;;;;;;20.72;80.47;99318.94;4863389;29;20202;-79
2023/05/13 09:57:53;;;;;;;3.13;2.83;;;;;;;21.07;78.78;99317.97;4911966;29;20209;-79
2023/05/13 10:00:21;;;;;;;5.97;3.30;;;;;;;21.32;72.83;99313.53;4903931;29;20273;-79
2023/05/13 10:03:01;;;;;;;4.23;3.23;;;;;;;21.35;76.41;99309.69;4913095;29;20311;-79
2023/05/13 10:05:30;;;;;;;3.80;3.40;;;;;;;21.17;78.78;99325.06;4926290;29;20263;-79
2023/05/13 10:08:00;;;;;;;5.17;3.03;;;;;;;21.55;73.91;99321.88;4926598;29;20308;-79
2023/05/13 10:10:32;;;;;;;4.83;3.37;;;;;;;21.68;75.10;99314.16;4922144;29;20225;-79
2023/05/13 10:13:05;;;;;;;3.97;3.07;;;;;;;21.48;76.49;99315.44;4933106;29;20212;-79
2023/05/13 10:15:34;;;;;;;6.50;3.77;;;;;;;21.19;80.18;99301.50;4929885;29;20576;-79
2023/05/13 10:18:04;;;;;;;5.23;3.87;;;;;;;21.88;79.56;99298.50;4924798;29;20204;-79
2023/05/13 10:20:34;;;;;;;5.03;3.80;;;;;;;21.66;83.09;99297.31;4927568;29;20201;-79
2023/05/13 10:23:04;;;;;;;4.57;3.70;;;;;;;21.51;77.33;99290.84;4925226;29;20193;-79
2023/05/13 10:25:34;;;;;;;4.83;3.43;;;;;;;21.35;77.36;99299.75;4944642;28;20203;-79
2023/05/13 10:28:04;;;;;;;3.87;3.10;;;;;;;21.10;74.26;99292.53;4963323;28;20227;-78
2023/05/13 10:30:34;;;;;;;6.93;4.53;;;;;;;21.67;73.62;99292.75;4967014;28;20223;-79
2023/05/13 10:33:04;;;;;;;4.63;3.40;;;;;;;22.14;70.51;99286.75;4963828;28;20254;-79
2023/05/13 10:35:36;;;;;;;7.53;3.10;;;;;;;22.97;58.83;99281.91;4963598;28;20208;-79
2023/05/13 10:38:15;;;;;;;4.70;3.20;;;;;;;23.03;57.67;99283.06;4969009;28;20211;-80
2023/05/13 10:40:59;;;;;;;4.72;3.60;;;;;;;23.33;59.51;99273.28;4964650;28;20203;-79
2023/05/13 10:43:28;;;;;;;4.45;2.97;;;;;;;23.81;52.64;99276.75;4970750;28;20195;-79
2023/05/13 10:45:58;;;;;;;4.13;3.13;;;;;;;23.77;49.48;99281.69;4969272;28;20212;-78
2023/05/13 10:48:27;;;;;;;3.95;2.92;;;;;;;23.78;49.94;99272.53;4970378;28;20620;-79
2023/05/13 10:50:59;;;;;;;4.80;3.05;;;;;;;23.40;49.37;99269.72;4971786;28;20219;-79
2023/05/13 10:53:30;;;;;;;3.15;2.70;;;;;;;24.00;50.39;99270.84;4969757;28;20211;-79
2023/05/13 10:56:00;;;;;;;5.65;3.53;;;;;;;24.10;55.40;99271.44;4966270;28;20647;-79
2023/05/13 10:58:30;;;;;;;4.10;3.42;;;;;;;23.62;58.18;99264.53;4974075;28;20196;-79
2023/05/13 11:01:13;;;;;;;5.38;2.90;;;;;;;23.55;47.19;99271.66;4970858;28;20692;-79
2023/05/13 11:03:51;;;;;;;3.88;2.85;;;;;;;23.11;50.42;99267.66;4973236;28;20219;-79
2023/05/13 11:06:22;;;;;;;2.83;2.63;;;;;;;23.76;49.88;99268.34;4965720;28;20191;-79
2023/05/13 11:08:52;;;;;;;4.30;2.83;;;;;;;23.72;49.45;99262.44;4970455;28;20201;-79
2023/05/13 11:11:31;;;;;;;6.45;2.88;;;;;;;23.96;45.65;99253.31;4970436;28;20230;-79
2023/05/13 11:14:08;;;;;;;5.15;2.85;;;;;;;23.89;46.65;99249.63;4974103;28;20218;-79
2023/05/13 11:16:37;;;;;;;2.97;2.58;;;;;;;23.42;48.77;99258.72;4973725;28;20198;-79
2023/05/13 11:19:18;;;;;;;4.10;2.70;;;;;;;22.97;48.74;99254.03;4972531;28;20203;-79
2023/05/13 11:21:50;;;;;;;4.15;2.70;;;;;;;22.37;49.32;99249.09;4967852;28;20207;-79
2023/05/13 11:24:19;;;;;;;3.00;2.70;;;;;;;23.05;51.23;99257.53;4972854;28;20207;-79
2023/05/13 11:26:55;;;;;;;6.03;3.03;;;;;;;23.63;48.94;99245.41;4973868;28;20199;-79
2023/05/13 11:29:31;;;;;;;3.08;2.65;;;;;;;24.44;47.52;99233.09;4976569;28;20222;-80
2023/05/13 11:32:00;;;;;;;4.80;2.60;;;;;;;24.08;44.54;99237.47;4972235;28;20273;-79
2023/05/13 11:34:30;;;;;;;5.80;2.55;;;;;;;24.24;46.54;99226.50;4970220;28;20199;-79
2023/05/13 11:37:08;;;;;;;3.13;2.53;;;;;;;24.16;43.32;99231.97;4971435;28;20200;-79